createdAt,value
2019-03-25T00:01:21.742Z,5.40
2019-03-25T00:03:50.926Z,5.90
2019-03-25T00:06:19.686Z,5.45
2019-03-25T00:08:48.473Z,5.90
2019-03-25T00:11:17.253Z,6.23
2019-03-25T00:13:46.027Z,6.10
2019-03-25T00:16:14.867Z,6.27
2019-03-25T00:18:43.970Z,6.42
2019-03-25T00:21:12.819Z,6.40
2019-03-25T00:23:41.647Z,6.42
2019-03-25T00:26:10.739Z,5.85
2019-03-25T00:28:39.530Z,6.00
2019-03-25T00:31:08.290Z,6.45
2019-03-25T00:33:37.414Z,6.85
2019-03-25T00:36:06.391Z,6.90
2019-03-25T00:38:35.148Z,6.50
2019-03-25T00:41:04.019Z,6.15
2019-03-25T00:43:32.769Z,6.72
2019-03-25T00:46:01.881Z,6.65
2019-03-25T00:48:31.835Z,6.65
2019-03-25T00:51:00.627Z,6.47
2019-03-25T00:53:29.387Z,6.40
2019-03-25T00:55:58.172Z,6.70
2019-03-25T00:58:26.960Z,6.60
2019-03-25T01:00:56.052Z,6.62
2019-03-25T01:03:24.853Z,6.40
2019-03-25T01:05:53.630Z,6.33
2019-03-25T01:08:22.465Z,6.20
2019-03-25T01:10:51.283Z,6.15
2019-03-25T01:13:20.399Z,6.03
2019-03-25T01:15:49.168Z,6.78
2019-03-25T01:18:17.973Z,6.47
2019-03-25T01:20:46.739Z,7.28
2019-03-25T01:23:15.504Z,6.20
2019-03-25T01:25:44.302Z,6.75
2019-03-25T01:28:13.070Z,6.33
2019-03-25T01:30:41.852Z,6.45
2019-03-25T01:33:10.629Z,7.17
2019-03-25T01:35:39.466Z,7.10
2019-03-25T01:38:08.228Z,6.70
2019-03-25T01:40:37.402Z,7.03
2019-03-25T01:43:06.170Z,7.03
2019-03-25T01:45:35.009Z,7.28
2019-03-25T01:48:03.803Z,8.00
2019-03-25T01:50:32.643Z,7.30
2019-03-25T01:53:01.404Z,7.55
2019-03-25T01:55:30.188Z,7.33
2019-03-25T01:57:59.236Z,6.90
2019-03-25T02:00:28.009Z,7.37
2019-03-25T02:02:56.823Z,7.60
2019-03-25T02:05:25.585Z,6.72
2019-03-25T02:07:54.357Z,7.17
2019-03-25T02:10:23.173Z,6.22
2019-03-25T02:12:51.972Z,7.60
2019-03-25T02:15:21.183Z,7.22
2019-03-25T02:17:49.980Z,7.00
2019-03-25T02:20:26.205Z,6.70
2019-03-25T02:22:50.120Z,6.70
2019-03-25T02:25:25.191Z,7.05
2019-03-25T02:27:49.744Z,6.22
2019-03-25T02:30:18.501Z,7.25
2019-03-25T02:32:47.297Z,6.85
2019-03-25T02:35:16.062Z,7.17
2019-03-25T02:37:44.829Z,6.97
2019-03-25T02:40:13.703Z,7.45
2019-03-25T02:42:42.539Z,7.37
2019-03-25T02:45:11.384Z,7.55
2019-03-25T02:47:40.241Z,6.58
2019-03-25T02:50:09.237Z,7.35
2019-03-25T02:52:38.080Z,7.17
2019-03-25T02:55:07.884Z,7.75
2019-03-25T02:57:36.701Z,6.85
2019-03-25T03:00:07.540Z,7.45
2019-03-25T03:02:36.414Z,7.35
2019-03-25T03:05:06.218Z,7.17
2019-03-25T03:07:35.000Z,7.47
2019-03-25T03:10:06.047Z,7.65
2019-03-25T03:12:35.234Z,7.28
2019-03-25T03:15:06.471Z,7.35
2019-03-25T03:17:35.673Z,7.87
2019-03-25T03:20:06.882Z,8.13
2019-03-25T03:22:35.728Z,7.90
2019-03-25T03:25:04.517Z,8.13
2019-03-25T03:27:33.291Z,8.43
2019-03-25T03:30:02.061Z,8.98
2019-03-25T03:32:30.937Z,7.58
2019-03-25T03:34:59.784Z,8.33
2019-03-25T03:37:28.614Z,8.95
2019-03-25T03:39:57.405Z,8.50
2019-03-25T03:42:26.245Z,7.97
2019-03-25T03:44:55.008Z,9.05
2019-03-25T03:47:24.110Z,8.98
2019-03-25T03:49:52.953Z,8.40
2019-03-25T03:52:21.799Z,7.92
2019-03-25T03:54:50.996Z,8.48
2019-03-25T03:57:19.772Z,8.65
2019-03-25T03:59:48.615Z,8.13
2019-03-25T04:02:17.494Z,8.23
2019-03-25T04:04:46.332Z,9.10
2019-03-25T04:07:15.179Z,8.05
2019-03-25T04:09:43.971Z,8.28
2019-03-25T04:12:12.757Z,8.43
2019-03-25T04:14:41.588Z,8.20
2019-03-25T04:17:10.449Z,8.23
2019-03-25T04:19:39.231Z,7.58
2019-03-25T04:22:08.085Z,7.22
2019-03-25T04:24:36.890Z,6.90
2019-03-25T04:27:05.728Z,7.20
2019-03-25T04:29:34.494Z,7.45
2019-03-25T04:32:06.033Z,8.30
2019-03-25T04:34:33.767Z,7.37
2019-03-25T04:37:02.534Z,6.83
2019-03-25T04:39:31.337Z,6.72
2019-03-25T04:42:00.161Z,7.05
2019-03-25T04:44:28.932Z,6.87
2019-03-25T04:46:58.052Z,7.03
2019-03-25T04:49:26.896Z,7.03
2019-03-25T04:51:55.646Z,6.22
2019-03-25T04:54:24.809Z,6.10
2019-03-25T04:56:53.837Z,6.55
2019-03-25T04:59:22.612Z,6.08
2019-03-25T05:01:51.484Z,5.53
2019-03-25T05:04:20.590Z,5.45
2019-03-25T05:06:49.370Z,5.70
2019-03-25T05:09:18.574Z,4.70
2019-03-25T05:11:47.783Z,4.95
2019-03-25T05:14:16.545Z,4.58
2019-03-25T05:16:45.420Z,4.10
2019-03-25T05:19:14.258Z,4.22
2019-03-25T05:21:43.033Z,3.87
2019-03-25T05:24:11.852Z,4.00
2019-03-25T05:26:50.692Z,3.60
2019-03-25T05:29:11.159Z,4.10
2019-03-25T05:31:39.942Z,4.33
2019-03-25T05:34:08.713Z,3.30
2019-03-25T05:36:37.474Z,3.05
2019-03-25T05:39:08.407Z,3.02
2019-03-25T05:41:37.217Z,3.47
2019-03-25T05:44:06.022Z,3.60
2019-03-25T05:46:34.896Z,3.22
2019-03-25T05:49:03.753Z,3.77
2019-03-25T05:51:32.820Z,3.37
2019-03-25T05:54:01.623Z,3.40
2019-03-25T05:56:30.405Z,3.27
2019-03-25T05:58:59.509Z,3.72
2019-03-25T06:01:28.557Z,3.05
2019-03-25T06:03:57.328Z,4.30
2019-03-25T06:06:26.101Z,3.62
2019-03-25T06:08:54.973Z,4.08
2019-03-25T06:11:23.759Z,3.60
2019-03-25T06:13:52.529Z,4.45
2019-03-25T06:16:21.422Z,4.37
2019-03-25T06:18:50.180Z,4.22
2019-03-25T06:21:18.936Z,3.87
2019-03-25T06:23:48.113Z,4.10
2019-03-25T06:26:16.881Z,4.45
2019-03-25T06:28:45.655Z,4.70
2019-03-25T06:31:14.460Z,4.08
2019-03-25T06:33:43.212Z,4.05
2019-03-25T06:36:11.984Z,3.80
2019-03-25T06:38:41.158Z,4.05
2019-03-25T06:41:09.933Z,4.55
2019-03-25T06:43:38.689Z,3.83
2019-03-25T06:46:07.837Z,4.80
2019-03-25T06:48:36.601Z,3.92
2019-03-25T06:51:05.360Z,3.58
2019-03-25T06:53:34.188Z,4.00
2019-03-25T06:56:02.948Z,4.47
2019-03-25T06:58:31.710Z,3.55
2019-03-25T07:01:00.575Z,3.70
2019-03-25T07:03:29.919Z,3.70
2019-03-25T07:05:58.810Z,3.60
2019-03-25T07:08:27.972Z,3.92
2019-03-25T07:10:57.068Z,4.40
2019-03-25T07:13:25.833Z,4.37
2019-03-25T07:15:54.629Z,4.22
2019-03-25T07:18:23.474Z,4.45
2019-03-25T07:20:52.244Z,3.50
2019-03-25T07:23:21.135Z,3.90
2019-03-25T07:25:49.960Z,4.50
2019-03-25T07:28:18.729Z,3.20
2019-03-25T07:30:47.523Z,4.67
2019-03-25T07:33:16.280Z,3.87
2019-03-25T07:35:45.055Z,4.15
2019-03-25T07:38:13.935Z,3.87
2019-03-25T07:40:43.060Z,3.50
2019-03-25T07:43:11.839Z,3.77
2019-03-25T07:45:40.709Z,4.37
2019-03-25T07:48:09.579Z,4.83
2019-03-25T07:50:38.734Z,4.42
2019-03-25T07:53:07.590Z,3.65
2019-03-25T07:55:36.369Z,3.87
2019-03-25T07:58:05.269Z,4.25
2019-03-25T08:00:34.411Z,4.08
2019-03-25T08:03:03.344Z,5.05
2019-03-25T08:05:32.178Z,4.42
2019-03-25T08:08:01.082Z,4.12
2019-03-25T08:10:33.149Z,4.50
2019-03-25T08:13:02.153Z,5.03
2019-03-25T08:15:31.184Z,4.00
2019-03-25T08:18:00.198Z,5.05
2019-03-25T08:20:28.972Z,4.62
2019-03-25T08:22:57.775Z,4.50
2019-03-25T08:25:26.544Z,4.25
2019-03-25T08:28:00.045Z,4.83
2019-03-25T08:30:25.817Z,3.90
2019-03-25T08:32:54.587Z,4.40
2019-03-25T08:35:23.454Z,4.67
2019-03-25T08:37:52.311Z,4.08
2019-03-25T08:40:21.177Z,3.30
2019-03-25T08:42:50.039Z,3.42
2019-03-25T08:45:18.855Z,3.95
2019-03-25T08:47:47.612Z,3.70
2019-03-25T08:50:16.372Z,4.10
2019-03-25T08:52:45.168Z,3.25
2019-03-25T08:55:13.942Z,2.83
2019-03-25T08:57:42.708Z,2.10
2019-03-25T09:00:12.525Z,2.27
2019-03-25T09:02:41.281Z,1.47
2019-03-25T09:05:10.053Z,1.00
2019-03-25T09:07:39.190Z,1.47
2019-03-25T09:10:08.023Z,1.37
2019-03-25T09:12:37.065Z,1.07
2019-03-25T09:15:10.083Z,1.50
2019-03-25T09:17:38.909Z,1.37
2019-03-25T09:20:07.904Z,1.82
2019-03-25T09:22:36.787Z,1.57
2019-03-25T09:25:09.728Z,2.50
2019-03-25T09:30:07.520Z,2.22
2019-03-25T09:32:36.626Z,2.17
2019-03-25T09:35:07.460Z,2.45
2019-03-25T09:37:36.516Z,2.77
2019-03-25T09:40:08.387Z,2.83
2019-03-25T09:42:37.290Z,3.12
2019-03-25T09:45:08.888Z,3.37
2019-03-25T09:47:38.057Z,3.20
2019-03-25T09:50:07.330Z,3.20
2019-03-25T09:52:38.786Z,3.80
2019-03-25T09:55:08.077Z,4.22
2019-03-25T09:57:36.840Z,3.62
2019-03-25T10:00:11.002Z,3.62
2019-03-25T10:02:39.843Z,4.12
2019-03-25T10:05:08.764Z,3.77
2019-03-25T10:07:37.659Z,3.27
2019-03-25T10:10:08.235Z,3.33
2019-03-25T10:12:37.427Z,3.25
2019-03-25T10:15:08.038Z,4.00
2019-03-25T10:17:36.834Z,4.42
2019-03-25T10:20:07.256Z,4.05
2019-03-25T10:22:36.113Z,4.30
2019-03-25T10:25:08.287Z,3.42
2019-03-25T10:27:37.133Z,4.22
2019-03-25T10:30:10.561Z,3.42
2019-03-25T10:32:39.335Z,4.22
2019-03-25T10:35:08.528Z,3.83
2019-03-25T10:37:37.437Z,3.25
2019-03-25T10:40:06.894Z,3.47
2019-03-25T10:42:36.022Z,3.05
2019-03-25T10:45:10.176Z,3.90
2019-03-25T10:47:38.983Z,3.50
2019-03-25T10:50:07.759Z,3.50
2019-03-25T10:52:36.647Z,3.47
2019-03-25T10:55:07.784Z,3.40
2019-03-25T10:57:36.536Z,3.70
2019-03-25T11:00:08.838Z,3.05
2019-03-25T11:02:37.603Z,3.17
2019-03-25T11:05:06.947Z,2.52
2019-03-25T11:07:35.937Z,3.00
2019-03-25T11:10:09.436Z,2.98
2019-03-25T11:15:08.388Z,3.35
2019-03-25T11:17:37.818Z,3.33
2019-03-25T11:20:09.634Z,3.20
2019-03-25T11:22:38.430Z,3.00
2019-03-25T11:25:07.213Z,2.70
2019-03-25T11:27:36.051Z,2.40
2019-03-25T11:30:07.335Z,2.58
2019-03-25T11:32:36.382Z,2.30
2019-03-25T11:35:07.794Z,1.90
2019-03-25T11:37:36.586Z,2.27
2019-03-25T11:40:07.328Z,3.15
2019-03-25T11:42:36.177Z,2.55
2019-03-25T11:45:09.026Z,2.45
2019-03-25T11:47:37.866Z,2.77
2019-03-25T11:50:10.203Z,1.90
2019-03-25T11:52:39.395Z,2.92
2019-03-25T11:55:08.192Z,2.40
2019-03-25T11:57:37.032Z,2.42
2019-03-25T12:00:08.532Z,2.47
2019-03-25T12:02:37.734Z,2.83
2019-03-25T12:05:07.756Z,2.50
2019-03-25T12:07:36.855Z,2.58
2019-03-25T12:10:06.350Z,2.58
2019-03-25T12:12:35.184Z,2.70
2019-03-25T12:15:06.444Z,2.60
2019-03-25T12:17:35.208Z,2.90
2019-03-25T12:20:06.691Z,2.58
2019-03-25T12:22:35.489Z,1.92
2019-03-25T12:25:06.868Z,2.70
2019-03-25T12:27:35.723Z,2.35
2019-03-25T12:30:06.869Z,2.90
2019-03-25T12:32:35.660Z,2.85
2019-03-25T12:35:06.548Z,3.30
2019-03-25T12:37:35.645Z,2.62
2019-03-25T12:40:07.735Z,3.12
2019-03-25T12:42:35.776Z,2.92
2019-03-25T12:45:06.689Z,3.00
2019-03-25T12:47:35.553Z,3.08
2019-03-25T12:50:06.875Z,3.27
2019-03-25T12:52:35.681Z,2.37
2019-03-25T12:55:05.407Z,2.58
2019-03-25T12:57:34.263Z,2.55
2019-03-25T13:00:03.741Z,2.87
2019-03-25T13:02:32.536Z,3.22
2019-03-25T13:05:01.389Z,2.92
2019-03-25T13:07:30.285Z,2.20
2019-03-25T13:09:59.146Z,2.45
2019-03-25T13:12:27.998Z,2.33
2019-03-25T13:14:56.805Z,2.33
2019-03-25T13:17:25.597Z,2.65
2019-03-25T13:19:54.367Z,2.65
2019-03-25T13:22:23.245Z,2.83
2019-03-25T13:24:52.021Z,4.22
2019-03-25T13:27:20.865Z,3.60
2019-03-25T13:29:52.705Z,3.35
2019-03-25T13:32:20.146Z,2.90
2019-03-25T13:34:48.952Z,3.17
2019-03-25T13:37:18.072Z,3.25
2019-03-25T13:39:46.842Z,3.72
2019-03-25T13:42:15.622Z,3.02
2019-03-25T13:44:44.428Z,3.45
2019-03-25T13:47:13.291Z,3.45
2019-03-25T13:49:42.150Z,3.55
2019-03-25T13:52:11.007Z,3.30
2019-03-25T13:54:39.854Z,3.27
2019-03-25T13:57:08.634Z,2.52
2019-03-25T13:59:37.430Z,2.00
2019-03-25T14:02:06.272Z,1.52
2019-03-25T14:04:35.065Z,2.20
2019-03-25T14:07:04.158Z,2.00
2019-03-25T14:09:32.991Z,2.17
2019-03-25T14:12:01.765Z,2.17
2019-03-25T14:14:30.586Z,2.47
2019-03-25T14:16:59.445Z,2.17
2019-03-25T14:19:29.291Z,2.40
2019-03-25T14:21:58.454Z,2.40
2019-03-25T14:24:27.313Z,1.87
2019-03-25T14:26:56.159Z,2.50
2019-03-25T14:29:24.954Z,2.50
2019-03-25T14:31:53.730Z,2.70
2019-03-25T14:34:22.547Z,3.15
2019-03-25T14:36:51.361Z,2.80
2019-03-25T14:39:20.201Z,3.02
2019-03-25T14:41:49.079Z,2.67
2019-03-25T14:44:17.869Z,3.58
2019-03-25T14:46:49.032Z,4.08
2019-03-25T14:49:17.894Z,3.80
2019-03-25T14:51:46.762Z,3.30
2019-03-25T14:54:15.539Z,2.77
2019-03-25T14:56:44.316Z,3.35
2019-03-25T14:59:13.126Z,3.50
2019-03-25T15:01:41.980Z,3.77
2019-03-25T15:04:10.815Z,2.90
2019-03-25T15:06:39.616Z,2.75
2019-03-25T15:09:08.453Z,2.55
2019-03-25T15:11:37.230Z,3.15
2019-03-25T15:14:06.034Z,3.30
2019-03-25T15:16:34.813Z,2.95
2019-03-25T15:19:03.661Z,2.83
2019-03-25T15:21:32.872Z,3.05
2019-03-25T15:24:01.659Z,2.80
2019-03-25T15:26:30.524Z,3.60
2019-03-25T15:28:59.356Z,3.30
2019-03-25T15:31:28.159Z,3.60
2019-03-25T15:33:58.275Z,3.08
2019-03-25T15:36:27.086Z,3.50
2019-03-25T15:38:56.141Z,3.77
2019-03-25T15:41:24.934Z,2.87
2019-03-25T15:43:53.747Z,3.42
2019-03-25T15:46:22.546Z,3.43
2019-03-25T15:48:51.604Z,3.17
2019-03-25T15:51:20.403Z,3.20
2019-03-25T15:53:49.167Z,3.27
2019-03-25T15:56:17.943Z,3.00
2019-03-25T15:58:46.742Z,2.65
2019-03-25T16:01:15.522Z,2.60
2019-03-25T16:03:44.304Z,2.75
2019-03-25T16:06:13.099Z,3.07
2019-03-25T16:08:41.956Z,3.20
2019-03-25T16:11:10.726Z,3.12
2019-03-25T16:13:39.607Z,3.85
2019-03-25T16:16:08.402Z,3.30
2019-03-25T16:18:40.720Z,2.90
2019-03-25T16:21:09.870Z,3.27
2019-03-25T16:23:38.722Z,2.42
2019-03-25T16:26:07.535Z,2.75
2019-03-25T16:28:36.404Z,2.65
2019-03-25T16:31:06.165Z,2.22
2019-03-25T16:33:34.939Z,2.30
2019-03-25T16:36:03.760Z,2.62
2019-03-25T16:38:32.542Z,3.02
2019-03-25T16:41:01.319Z,2.70
2019-03-25T16:43:30.112Z,3.10
2019-03-25T16:45:59.220Z,3.72
2019-03-25T16:48:28.070Z,3.30
2019-03-25T16:50:56.881Z,3.10
2019-03-25T16:53:25.937Z,3.33
2019-03-25T16:55:55.074Z,3.80
2019-03-25T16:58:23.884Z,6.00
2019-03-25T17:00:52.738Z,5.10
2019-03-25T17:03:21.578Z,4.40
2019-03-25T17:05:50.396Z,7.17
2019-03-25T17:08:19.309Z,4.45
2019-03-25T17:10:48.364Z,4.40
2019-03-25T17:13:17.656Z,3.85
2019-03-25T17:15:46.484Z,4.70
2019-03-25T17:18:15.272Z,4.28
2019-03-25T17:20:44.082Z,3.90
2019-03-25T17:23:12.852Z,4.20
2019-03-25T17:25:52.516Z,3.40
2019-03-25T17:28:12.158Z,3.67
2019-03-25T17:30:40.931Z,4.10
2019-03-25T17:33:09.715Z,3.85
2019-03-25T17:35:38.603Z,3.52
2019-03-25T17:38:07.393Z,3.60
2019-03-25T17:40:36.261Z,3.45
2019-03-25T17:43:05.232Z,3.50
2019-03-25T17:45:34.027Z,3.90
2019-03-25T17:48:02.883Z,4.37
2019-03-25T17:50:31.712Z,4.17
2019-03-25T17:53:00.552Z,4.30
2019-03-25T17:55:29.332Z,3.85
2019-03-25T17:57:58.144Z,3.80
2019-03-25T18:00:45.249Z,5.30
2019-03-25T18:03:15.403Z,4.28
2019-03-25T18:05:44.263Z,4.47
2019-03-25T18:08:13.106Z,4.70
2019-03-25T18:10:41.918Z,4.53
2019-03-25T18:13:21.776Z,4.30
2019-03-25T18:15:41.229Z,5.72
2019-03-25T18:18:10.025Z,6.80
2019-03-25T18:20:38.800Z,4.90
2019-03-25T18:23:07.583Z,4.08
2019-03-25T18:25:36.446Z,4.10
2019-03-25T18:28:05.592Z,5.10
2019-03-25T18:30:36.200Z,4.62
2019-03-25T18:33:05.056Z,4.42
2019-03-25T18:35:33.853Z,4.47
2019-03-25T18:38:02.723Z,4.55
2019-03-25T18:40:31.590Z,4.15
2019-03-25T18:43:00.365Z,4.33
2019-03-25T18:45:29.174Z,5.42
2019-03-25T18:47:58.039Z,4.62
2019-03-25T18:50:26.877Z,4.10
2019-03-25T18:52:56.863Z,6.12
2019-03-25T18:55:26.131Z,5.05
2019-03-25T18:57:54.983Z,5.30
2019-03-25T19:00:34.722Z,4.42
2019-03-25T19:03:03.756Z,5.03
2019-03-25T19:05:32.656Z,5.53
2019-03-25T19:08:01.993Z,4.72
2019-03-25T19:10:30.831Z,4.65
2019-03-25T19:12:59.638Z,5.47
2019-03-25T19:15:28.497Z,4.00
2019-03-25T19:17:57.294Z,4.70
2019-03-25T19:20:26.148Z,4.42
2019-03-25T19:22:55.056Z,7.78
2019-03-25T19:25:23.854Z,4.45
2019-03-25T19:27:52.698Z,3.80
2019-03-25T19:30:21.579Z,4.72
2019-03-25T19:32:50.721Z,4.60
2019-03-25T19:35:19.521Z,4.35
2019-03-25T19:37:48.367Z,4.65
2019-03-25T19:40:17.188Z,4.70
2019-03-25T19:42:46.313Z,14.90
2019-03-25T19:45:15.315Z,8.08
2019-03-25T19:47:44.126Z,5.30
2019-03-25T19:50:13.655Z,4.62
2019-03-25T19:52:42.511Z,4.90
2019-03-25T19:55:11.347Z,3.90
2019-03-25T19:57:40.248Z,4.60
2019-03-25T20:00:09.840Z,5.47
2019-03-25T20:02:38.962Z,4.30
2019-03-25T20:05:08.000Z,4.92
2019-03-25T20:07:37.249Z,4.97
2019-03-25T20:10:07.659Z,5.15
2019-03-25T20:12:36.505Z,7.25
2019-03-25T20:15:06.802Z,6.87
2019-03-25T20:17:35.670Z,6.20
2019-03-25T20:20:05.959Z,8.15
2019-03-25T20:22:34.856Z,6.70
2019-03-25T20:25:05.752Z,5.22
2019-03-25T20:27:34.581Z,5.47
2019-03-25T20:30:05.674Z,5.10
2019-03-25T20:32:34.518Z,5.05
2019-03-25T20:35:03.864Z,5.42
2019-03-25T20:37:32.712Z,5.42
2019-03-25T20:40:01.526Z,6.75
2019-03-25T20:42:30.336Z,9.23
2019-03-25T20:44:59.665Z,6.50
2019-03-25T20:47:28.532Z,4.92
2019-03-25T20:49:57.483Z,6.67
2019-03-25T20:52:26.366Z,7.78
2019-03-25T20:54:55.432Z,5.50
2019-03-25T20:57:24.275Z,5.03
2019-03-25T20:59:53.060Z,8.90
2019-03-25T21:02:21.858Z,6.80
2019-03-25T21:04:50.709Z,6.67
2019-03-25T21:07:19.558Z,5.92
2019-03-25T21:09:48.370Z,7.28
2019-03-25T21:12:17.189Z,6.28
2019-03-25T21:14:46.052Z,7.12
2019-03-25T21:17:14.931Z,7.58
2019-03-25T21:19:43.697Z,6.95
2019-03-25T21:22:12.531Z,8.63
2019-03-25T21:24:41.351Z,8.90
2019-03-25T21:27:10.212Z,7.58
2019-03-25T21:29:39.151Z,7.55
2019-03-25T21:32:07.915Z,7.90
2019-03-25T21:34:36.707Z,19.87
2019-03-25T21:37:11.274Z,35.00
2019-03-25T21:39:40.162Z,40.35
2019-03-25T21:42:08.981Z,52.73
2019-03-25T21:44:37.867Z,26.68
2019-03-25T21:47:06.697Z,31.73
2019-03-25T21:49:35.591Z,39.90
2019-03-25T21:52:04.489Z,30.50
2019-03-25T21:54:33.336Z,42.23
2019-03-25T21:57:02.185Z,11.00
2019-03-25T21:59:31.105Z,19.25
2019-03-25T22:01:59.966Z,14.43
2019-03-25T22:04:28.791Z,32.45
2019-03-25T22:06:57.912Z,25.90
2019-03-25T22:09:26.678Z,16.42
2019-03-25T22:11:55.463Z,13.90
2019-03-25T22:14:24.342Z,6.67
2019-03-25T22:16:53.113Z,4.72
2019-03-25T22:19:21.888Z,4.47
2019-03-25T22:21:51.067Z,4.83
2019-03-25T22:24:20.167Z,4.42
2019-03-25T22:26:49.012Z,4.15
2019-03-25T22:29:17.884Z,3.65
2019-03-25T22:31:46.762Z,4.00
2019-03-25T22:34:15.567Z,4.17
2019-03-25T22:36:44.438Z,4.45
2019-03-25T22:39:13.509Z,3.87
2019-03-25T22:41:42.335Z,3.92
2019-03-25T22:44:11.158Z,4.28
2019-03-25T22:46:39.935Z,4.25
2019-03-25T22:49:08.703Z,4.35
2019-03-25T22:51:37.508Z,4.17
2019-03-25T22:54:06.291Z,4.00
2019-03-25T22:56:35.055Z,4.20
2019-03-25T22:59:03.846Z,4.78
2019-03-25T23:01:32.615Z,4.12
2019-03-25T23:04:01.819Z,3.72
2019-03-25T23:06:30.622Z,3.72
2019-03-25T23:08:59.407Z,3.60
2019-03-25T23:11:28.195Z,4.03
2019-03-25T23:13:57.292Z,3.55
2019-03-25T23:16:26.121Z,3.83
2019-03-25T23:18:54.968Z,3.27
2019-03-25T23:21:23.854Z,3.50
2019-03-25T23:23:52.622Z,4.12
2019-03-25T23:26:21.398Z,3.50
2019-03-25T23:28:50.206Z,3.65
2019-03-25T23:31:18.993Z,3.98
2019-03-25T23:33:52.457Z,3.37
2019-03-25T23:36:18.368Z,4.10
2019-03-25T23:38:47.257Z,3.55
2019-03-25T23:41:16.057Z,3.73
2019-03-25T23:43:44.917Z,3.58
2019-03-25T23:46:13.714Z,3.73
2019-03-25T23:51:46.647Z,4.58
2019-03-25T23:54:15.478Z,3.77
2019-03-25T23:56:44.596Z,3.90
2019-03-25T23:59:13.392Z,3.87
